Terminal Aerodrome Forecast
Issued by NWS

Home | Current Version | Previous Version | Text Only | Print | Product List | Glossary On
Versions: 1 2 3 4 5 6 7 8 9 10 11 12 13 14
550
FTPA31 PHFO 031121
TAFHMK
TAF
PHMK 031121Z 0312/0412 04010G18KT P6SM VCSH SCT025 BKN045
     FM032000 04016G24KT P6SM FEW025 SCT045
     FM040500 04010G18KT P6SM VCSH SCT025 BKN045=

USA.gov is the U.S. government's official web portal to all federal, state and local government web resources and services.